Terminal Aerodrome Forecast
Issued by NWS

Home | Current Version | Previous Version | Text Only | Print | Product List | Glossary On
Versions: 1 2 3 4 5 6 7 8 9 10 11 12 13 14 15 16 17 18 19 20
000
FTUS45 KGJT 191747
TAFTEX
TAF
KTEX 191747Z 1918/2018 VRB03KT P6SM VCSH BKN060
     FM192000 25007KT 5SM BR VCSH BKN015
     FM200000 26005KT 2SM -SN OVC015
     FM200300 15004KT 3SM -SN OVC015
     FM200600 22006KT 1 1/2SM -SN OVC025
     FM201300 23006KT 3SM -SN OVC015=

USA.gov is the U.S. government's official web portal to all federal, state and local government web resources and services.